Time;durP1;ratioP1;P1;durP2;ratioP2;P2;SDS_P1;SDS_P2;PMS_P1;PMS_P2;Temp;Humidity;BMP_temperature;BMP_pressure;BME280_temperature;BME280_humidity;BME280_pressure;Samples;Min_cycle;Max_cycle;Signal;HPM_P1;HPM_P2
2023/07/14 00:00:26;;;;;;;4.57;3.07;;;15.90;99.90;;;;;;492882;241;28832;-80
2023/07/14 00:02:28;;;;;;;3.07;2.60;;;15.80;99.90;;;;;;497451;239;28828;-80
2023/07/14 00:04:31;;;;;;;2.80;2.20;;;15.80;99.90;;;;;;497507;239;29326;-81
2023/07/14 00:06:30;;;;;;;3.83;2.60;;;15.80;99.90;;;;;;497416;239;29320;-79
2023/07/14 00:08:32;;;;;;;3.80;2.57;;;15.70;99.90;;;;;;492940;241;29439;-76
2023/07/14 00:10:33;;;;;;;3.67;2.33;;;15.70;99.90;;;;;;497547;239;29270;-79
2023/07/14 00:12:34;;;;;;;4.03;2.37;;;15.70;99.90;;;;;;497530;239;28833;-82
2023/07/14 00:14:35;;;;;;;2.40;1.90;;;15.70;99.90;;;;;;492825;241;28854;-80
2023/07/14 00:16:36;;;;;;;2.90;2.47;;;15.70;99.90;;;;;;497490;239;28859;-81
2023/07/14 00:18:38;;;;;;;4.00;3.10;;;15.60;99.90;;;;;;497590;239;28842;-78
2023/07/14 00:20:39;;;;;;;2.83;2.30;;;15.60;99.90;;;;;;492941;241;28815;-81
2023/07/14 00:22:40;;;;;;;2.80;2.00;;;15.60;99.90;;;;;;497577;239;28924;-77
2023/07/14 00:24:42;;;;;;;2.70;2.50;;;15.60;99.90;;;;;;497542;239;28814;-81
2023/07/14 00:26:43;;;;;;;3.70;2.80;;;15.60;99.90;;;;;;497479;239;28829;-77
2023/07/14 00:28:44;;;;;;;3.17;2.77;;;15.60;99.90;;;;;;492925;241;28846;-79
2023/07/14 00:30:45;;;;;;;2.60;2.33;;;15.60;99.90;;;;;;497494;239;29442;-81
2023/07/14 00:32:47;;;;;;;5.53;2.50;;;15.60;99.90;;;;;;497508;239;29369;-79
2023/07/14 00:34:48;;;;;;;2.37;2.03;;;15.50;99.90;;;;;;492892;241;29264;-80
2023/07/14 00:36:49;;;;;;;4.43;3.30;;;15.50;99.90;;;;;;497456;239;28940;-81
2023/07/14 00:38:50;;;;;;;4.47;2.80;;;15.40;99.90;;;;;;497526;239;28874;-80
2023/07/14 00:40:51;;;;;;;4.73;2.67;;;15.30;99.90;;;;;;492905;241;28803;-81
2023/07/14 00:42:53;;;;;;;4.30;2.73;;;15.30;99.90;;;;;;497567;239;28841;-81
2023/07/14 00:44:54;;;;;;;3.57;2.60;;;15.30;99.90;;;;;;497578;239;28791;-81
2023/07/14 00:46:55;;;;;;;2.80;2.40;;;15.30;99.90;;;;;;492901;241;28859;-79
2023/07/14 00:48:56;;;;;;;3.00;2.20;;;15.20;99.90;;;;;;497515;239;28833;-80
2023/07/14 00:50:58;;;;;;;3.47;2.43;;;15.20;99.90;;;;;;497485;239;28891;-79
2023/07/14 00:52:59;;;;;;;3.87;2.20;;;15.20;99.90;;;;;;493038;241;28950;-78
2023/07/14 00:55:00;;;;;;;3.47;2.23;;;15.20;99.90;;;;;;497659;239;29687;-81
2023/07/14 00:57:01;;;;;;;3.60;2.20;;;15.20;99.90;;;;;;497535;239;29278;-79
2023/07/14 00:59:03;;;;;;;2.43;2.23;;;15.20;99.90;;;;;;497676;239;29305;-83
2023/07/14 01:01:04;;;;;;;1.97;1.77;;;15.20;99.90;;;;;;497645;239;29245;-83
2023/07/14 01:03:05;;;;;;;2.27;2.07;;;15.20;99.90;;;;;;493061;241;28904;-82
2023/07/14 01:05:06;;;;;;;3.20;2.10;;;15.20;99.90;;;;;;497611;239;28874;-85
2023/07/14 01:07:08;;;;;;;2.27;2.07;;;15.10;99.90;;;;;;497564;239;28807;-83
2023/07/14 01:09:09;;;;;;;2.60;2.40;;;15.30;99.90;;;;;;493022;241;28840;-78
2023/07/14 01:11:10;;;;;;;5.00;2.10;;;15.30;99.90;;;;;;497587;239;28875;-80
2023/07/14 01:13:11;;;;;;;6.07;2.50;;;15.30;99.90;;;;;;497488;239;28865;-80
2023/07/14 01:15:13;;;;;;;2.83;2.23;;;15.30;99.90;;;;;;492915;241;29201;-80
2023/07/14 01:17:14;;;;;;;2.20;2.00;;;15.40;99.90;;;;;;497490;239;28867;-79
2023/07/14 01:19:15;;;;;;;2.40;2.13;;;15.40;99.90;;;;;;497591;236;28910;-79
2023/07/14 01:21:16;;;;;;;2.70;2.30;;;15.30;99.90;;;;;;492885;241;29256;-80
2023/07/14 01:23:19;;;;;;;2.83;1.90;;;15.30;99.90;;;;;;497293;239;29703;-80
2023/07/14 01:25:19;;;;;;;2.00;1.90;;;15.30;99.90;;;;;;496803;239;29341;-78
2023/07/14 01:27:20;;;;;;;2.37;2.17;;;15.30;99.90;;;;;;492289;241;28856;-81
2023/07/14 01:29:21;;;;;;;3.40;2.30;;;15.30;99.90;;;;;;497165;239;28838;-81
2023/07/14 01:31:24;;;;;;;3.33;1.90;;;15.30;99.90;;;;;;497421;239;28789;-80
2023/07/14 01:33:24;;;;;;;2.27;2.07;;;15.30;99.90;;;;;;492728;241;28999;-82
2023/07/14 01:35:25;;;;;;;2.23;1.90;;;15.30;99.90;;;;;;497555;239;28878;-77
2023/07/14 01:37:27;;;;;;;2.83;2.27;;;15.30;99.90;;;;;;497528;239;28821;-78
2023/07/14 01:39:29;;;;;;;5.27;2.23;;;15.20;99.90;;;;;;492835;241;28831;-81
2023/07/14 01:41:29;;;;;;;2.27;2.00;;;15.20;99.90;;;;;;497453;239;28836;-81
2023/07/14 01:43:30;;;;;;;3.63;2.07;;;15.30;99.90;;;;;;497488;239;28901;-80
2023/07/14 01:45:32;;;;;;;2.77;2.13;;;15.30;99.90;;;;;;492837;240;29330;-79
2023/07/14 01:47:36;;;;;;;2.67;2.03;;;15.40;99.90;;;;;;497482;239;29240;-81
2023/07/14 01:49:34;;;;;;;2.60;2.20;;;15.40;99.90;;;;;;497428;239;29319;-79
2023/07/14 01:51:38;;;;;;;2.30;2.10;;;15.40;99.90;;;;;;497526;239;28867;-78
2023/07/14 01:53:37;;;;;;;4.37;2.50;;;15.40;99.90;;;;;;497463;239;28918;-80
2023/07/14 01:55:38;;;;;;;2.50;2.30;;;15.40;99.90;;;;;;497458;239;28912;-79
2023/07/14 01:57:40;;;;;;;5.30;2.53;;;15.40;99.90;;;;;;497470;239;28828;-82
2023/07/14 01:59:40;;;;;;;3.97;2.97;;;15.30;99.90;;;;;;492836;241;28850;-80
2023/07/14 02:01:42;;;;;;;2.60;2.10;;;15.30;99.90;;;;;;497511;239;29189;-81
2023/07/14 02:03:43;;;;;;;4.27;2.33;;;15.30;99.90;;;;;;497374;239;28917;-80
2023/07/14 02:05:44;;;;;;;4.40;2.67;;;15.30;99.90;;;;;;497584;239;28829;-81
2023/07/14 02:07:46;;;;;;;3.03;2.33;;;15.30;99.90;;;;;;492995;241;28821;-80
2023/07/14 02:09:47;;;;;;;2.73;2.50;;;15.30;99.90;;;;;;497449;239;29327;-79
2023/07/14 02:11:48;;;;;;;4.87;3.07;;;15.20;99.90;;;;;;497506;239;29335;-79
2023/07/14 02:13:49;;;;;;;4.30;2.50;;;15.10;99.90;;;;;;492872;241;29260;-80
2023/07/14 02:15:51;;;;;;;4.40;2.30;;;15.10;99.90;;;;;;497484;239;29386;-80
2023/07/14 02:17:52;;;;;;;4.20;2.30;;;15.00;99.90;;;;;;497488;239;28836;-79
2023/07/14 02:19:53;;;;;;;2.57;2.00;;;15.00;99.90;;;;;;492861;241;28842;-80
2023/07/14 02:21:57;;;;;;;1.90;1.50;;;14.90;99.90;;;;;;497499;239;28848;-78
2023/07/14 02:23:59;;;;;;;2.57;2.37;;;14.80;99.90;;;;;;497507;239;28835;-79
2023/07/14 02:25:59;;;;;;;2.43;2.23;;;14.80;99.90;;;;;;497464;239;28793;-80
2023/07/14 02:28:01;;;;;;;2.03;1.93;;;14.70;99.90;;;;;;492889;241;28914;-81
2023/07/14 02:30:02;;;;;;;4.10;2.30;;;14.70;99.90;;;;;;497495;239;29390;-80
2023/07/14 02:32:03;;;;;;;2.80;2.30;;;14.70;99.90;;;;;;497518;239;29312;-80
2023/07/14 02:34:04;;;;;;;2.90;2.60;;;14.70;99.90;;;;;;492870;241;29320;-80
2023/07/14 02:36:06;;;;;;;2.53;2.33;;;14.70;99.90;;;;;;497482;239;28872;-80
2023/07/14 02:38:07;;;;;;;2.53;2.33;;;14.70;99.90;;;;;;497487;239;28927;-80
2023/07/14 02:40:08;;;;;;;2.30;2.10;;;14.70;99.90;;;;;;492872;241;28854;-80
2023/07/14 02:42:09;;;;;;;3.97;2.17;;;14.80;99.90;;;;;;497471;239;28806;-80
2023/07/14 02:44:11;;;;;;;2.60;2.40;;;14.70;99.90;;;;;;497508;239;28837;-81
2023/07/14 02:46:12;;;;;;;2.90;2.13;;;14.70;99.90;;;;;;492840;241;28790;-80
2023/07/14 02:48:13;;;;;;;4.37;2.23;;;14.70;99.90;;;;;;497491;239;28852;-80
2023/07/14 02:50:14;;;;;;;4.63;2.23;;;14.60;99.90;;;;;;497589;239;28832;-80
2023/07/14 02:52:16;;;;;;;2.57;2.37;;;14.60;99.90;;;;;;492852;241;28938;-81
2023/07/14 02:54:17;;;;;;;2.13;1.93;;;14.60;99.90;;;;;;497482;239;29430;-79
2023/07/14 02:56:18;;;;;;;2.20;2.00;;;14.60;99.90;;;;;;497474;239;29321;-80
2023/07/14 02:58:19;;;;;;;2.20;2.00;;;14.60;99.90;;;;;;492896;241;29370;-80
2023/07/14 03:00:21;;;;;;;2.17;2.00;;;14.60;99.90;;;;;;497504;239;29387;-79
2023/07/14 03:02:22;;;;;;;3.43;2.20;;;14.50;99.90;;;;;;497496;239;28806;-80
2023/07/14 03:04:23;;;;;;;8.37;1.97;;;14.50;99.90;;;;;;497459;239;28966;-79
2023/07/14 03:06:24;;;;;;;3.33;1.90;;;14.40;99.90;;;;;;492916;241;28850;-81
2023/07/14 03:08:29;;;;;;;2.23;2.10;;;14.40;99.90;;;;;;497601;239;28863;-80
2023/07/14 03:10:27;;;;;;;3.10;2.50;;;14.40;99.90;;;;;;497575;239;29179;-80
2023/07/14 03:12:28;;;;;;;2.20;2.00;;;14.50;99.90;;;;;;497546;239;28885;-80
2023/07/14 03:14:29;;;;;;;4.40;2.00;;;14.50;99.90;;;;;;497497;239;28902;-78
2023/07/14 03:16:31;;;;;;;1.87;1.60;;;14.50;99.90;;;;;;493011;241;28791;-78
2023/07/14 03:18:32;;;;;;;3.43;2.00;;;14.60;99.90;;;;;;497566;239;28935;-81
2023/07/14 03:20:33;;;;;;;3.63;2.20;;;14.60;99.90;;;;;;497575;239;29335;-80
2023/07/14 03:22:35;;;;;;;2.50;2.17;;;14.70;99.90;;;;;;492926;241;28800;-79
2023/07/14 03:24:36;;;;;;;2.83;2.00;;;14.70;99.90;;;;;;497552;239;28959;-80
2023/07/14 03:26:37;;;;;;;2.23;2.03;;;14.70;99.90;;;;;;497492;239;28797;-80
2023/07/14 03:28:38;;;;;;;2.63;2.10;;;14.70;99.90;;;;;;497494;239;28894;-79
2023/07/14 03:30:43;;;;;;;4.17;2.40;;;14.60;99.90;;;;;;492914;241;28877;-79
2023/07/14 03:32:44;;;;;;;2.00;1.70;;;14.60;99.90;;;;;;497544;239;28844;-82
2023/07/14 03:34:45;;;;;;;2.27;2.07;;;14.60;99.90;;;;;;497501;236;29292;-79
2023/07/14 03:36:46;;;;;;;2.40;2.20;;;14.70;99.90;;;;;;492900;241;29299;-80
2023/07/14 03:38:48;;;;;;;3.17;2.10;;;14.70;99.90;;;;;;492365;239;29189;-77
2023/07/14 03:40:49;;;;;;;3.53;2.30;;;14.70;99.90;;;;;;496310;237;28801;-81
2023/07/14 03:42:50;;;;;;;2.57;2.03;;;14.80;99.90;;;;;;496999;239;28805;-80
2023/07/14 03:44:51;;;;;;;2.60;2.13;;;14.70;99.90;;;;;;497022;239;28892;-80
2023/07/14 03:46:53;;;;;;;4.77;2.33;;;14.70;99.90;;;;;;496995;239;28833;-80
2023/07/14 03:48:55;;;;;;;2.97;2.10;;;14.60;99.90;;;;;;497029;239;28919;-79
2023/07/14 03:50:55;;;;;;;2.20;2.00;;;14.60;99.90;;;;;;497025;239;28870;-79
2023/07/14 03:52:56;;;;;;;3.43;1.87;;;14.60;99.90;;;;;;497020;239;28860;-78
2023/07/14 03:54:58;;;;;;;3.87;2.30;;;14.60;99.90;;;;;;497005;239;28839;-81
2023/07/14 03:56:59;;;;;;;3.77;2.03;;;14.60;99.90;;;;;;496968;239;28729;-81
2023/07/14 03:59:00;;;;;;;6.47;2.40;;;14.60;99.90;;;;;;497024;239;29337;-81
2023/07/14 04:01:01;;;;;;;4.30;2.47;;;14.70;99.90;;;;;;497146;239;29288;-78
2023/07/14 04:03:03;;;;;;;2.30;2.10;;;14.80;99.90;;;;;;497126;239;29322;-79
2023/07/14 04:05:04;;;;;;;3.10;2.60;;;14.80;99.90;;;;;;497144;239;29355;-78
2023/07/14 04:07:07;;;;;;;3.60;2.33;;;14.80;99.90;;;;;;497050;239;28851;-79
2023/07/14 04:09:07;;;;;;;3.83;2.43;;;14.80;99.90;;;;;;497027;239;28847;-79
2023/07/14 04:11:08;;;;;;;3.93;2.40;;;14.80;99.90;;;;;;496998;239;28890;-79
2023/07/14 04:13:09;;;;;;;2.77;2.00;;;14.90;99.90;;;;;;497025;239;28916;-80
2023/07/14 04:15:10;;;;;;;4.03;2.33;;;15.00;99.90;;;;;;497172;239;28876;-80
2023/07/14 04:17:12;;;;;;;4.20;2.40;;;15.00;99.90;;;;;;497391;239;28877;-80
2023/07/14 04:19:13;;;;;;;2.70;1.87;;;14.90;99.90;;;;;;497491;239;28801;-81
2023/07/14 04:21:14;;;;;;;2.40;1.90;;;14.90;99.90;;;;;;497469;239;28784;-82
2023/07/14 04:23:17;;;;;;;4.57;2.60;;;15.00;99.90;;;;;;497249;239;28867;-79
2023/07/14 04:25:17;;;;;;;2.80;1.90;;;15.00;99.90;;;;;;497068;239;30162;-80
2023/07/14 04:27:18;;;;;;;3.20;2.10;;;15.10;99.90;;;;;;497067;239;29243;-80
2023/07/14 04:29:19;;;;;;;2.40;2.20;;;15.10;99.90;;;;;;497050;239;29341;-81
2023/07/14 04:31:20;;;;;;;3.63;2.13;;;15.00;99.90;;;;;;497015;239;28798;-79
2023/07/14 04:33:22;;;;;;;3.67;2.43;;;15.00;99.90;;;;;;496986;239;28824;-80
2023/07/14 04:35:23;;;;;;;5.00;4.60;;;15.00;99.90;;;;;;496973;239;28862;-80
2023/07/14 04:37:24;;;;;;;7.73;5.97;;;15.00;99.90;;;;;;497115;239;28925;-81
2023/07/14 04:39:25;;;;;;;5.97;4.40;;;15.00;99.90;;;;;;497052;239;28850;-77
2023/07/14 04:41:27;;;;;;;4.33;2.97;;;15.00;99.90;;;;;;497000;239;28878;-80
2023/07/14 04:43:28;;;;;;;3.17;2.87;;;15.00;99.90;;;;;;497051;239;28782;-80
2023/07/14 04:45:29;;;;;;;3.07;2.60;;;15.10;99.90;;;;;;497089;239;29196;-77
2023/07/14 04:47:30;;;;;;;3.00;2.33;;;15.20;99.90;;;;;;497060;239;28816;-80
2023/07/14 04:49:32;;;;;;;2.77;2.57;;;15.30;99.90;;;;;;497030;239;29385;-79
2023/07/14 04:51:33;;;;;;;4.30;2.10;;;15.20;99.90;;;;;;496954;239;29288;-81
2023/07/14 04:53:34;;;;;;;2.57;2.10;;;15.30;99.90;;;;;;496996;239;29407;-81
2023/07/14 04:55:36;;;;;;;3.70;2.33;;;15.30;99.90;;;;;;497109;239;29354;-81
2023/07/14 04:57:37;;;;;;;2.77;2.40;;;15.40;99.90;;;;;;497107;239;28838;-78
2023/07/14 04:59:38;;;;;;;3.73;2.60;;;15.30;99.90;;;;;;497084;239;28848;-80
2023/07/14 05:01:39;;;;;;;2.50;2.07;;;15.40;99.90;;;;;;497092;239;28804;-81
2023/07/14 05:03:41;;;;;;;2.23;1.93;;;15.40;99.90;;;;;;497052;239;28862;-79
2023/07/14 05:05:42;;;;;;;3.10;2.43;;;15.40;99.90;;;;;;497121;239;28843;-79
2023/07/14 05:07:43;;;;;;;2.10;2.00;;;15.40;99.90;;;;;;497028;239;28796;-80
2023/07/14 05:09:44;;;;;;;2.80;2.17;;;15.30;99.90;;;;;;497004;239;28914;-78
2023/07/14 05:11:45;;;;;;;2.43;2.23;;;15.40;99.90;;;;;;497050;239;28871;-79
2023/07/14 05:13:47;;;;;;;3.67;2.03;;;15.50;99.90;;;;;;497011;239;28870;-79
2023/07/14 05:15:48;;;;;;;5.70;2.37;;;15.60;99.90;;;;;;497069;239;29315;-79
2023/07/14 05:17:49;;;;;;;2.80;2.03;;;15.80;99.90;;;;;;497036;239;29264;-78
2023/07/14 05:19:50;;;;;;;2.70;2.50;;;15.80;99.90;;;;;;497033;239;29395;-78
2023/07/14 05:21:52;;;;;;;3.80;2.17;;;15.90;99.90;;;;;;497013;239;28854;-76
2023/07/14 05:23:53;;;;;;;4.80;2.23;;;15.80;99.90;;;;;;496996;239;28847;-79
2023/07/14 05:25:54;;;;;;;3.23;2.40;;;15.90;99.90;;;;;;496961;239;28852;-80
2023/07/14 05:27:55;;;;;;;5.90;2.10;;;15.90;99.90;;;;;;497033;239;28856;-81
2023/07/14 05:29:57;;;;;;;2.30;2.10;;;16.00;99.90;;;;;;496980;239;28841;-80
2023/07/14 05:31:58;;;;;;;4.50;2.37;;;16.10;99.90;;;;;;497026;239;28839;-78
2023/07/14 05:33:59;;;;;;;2.73;2.10;;;16.10;99.90;;;;;;493306;239;28768;-78
2023/07/14 05:36:00;;;;;;;3.80;2.07;;;16.10;99.90;;;;;;490066;242;29378;-77
2023/07/14 05:38:02;;;;;;;3.10;2.40;;;16.20;99.90;;;;;;490040;242;29398;-80
2023/07/14 05:40:05;;;;;;;2.27;1.97;;;16.10;99.90;;;;;;489958;241;29420;-80
2023/07/14 05:42:04;;;;;;;2.50;2.30;;;16.20;99.90;;;;;;489919;242;28959;-79
2023/07/14 05:44:05;;;;;;;4.17;2.40;;;16.20;99.90;;;;;;490058;242;28853;-79
2023/07/14 05:46:07;;;;;;;2.40;2.13;;;16.30;99.90;;;;;;490084;242;28868;-81
2023/07/14 05:48:08;;;;;;;2.83;2.50;;;16.40;99.90;;;;;;490068;242;28791;-81
2023/07/14 05:50:09;;;;;;;5.30;2.30;;;16.50;99.90;;;;;;490051;242;28942;-79
2023/07/14 05:52:12;;;;;;;4.30;2.47;;;16.60;99.90;;;;;;490051;242;29065;-82
2023/07/14 05:54:12;;;;;;;2.90;2.03;;;16.70;99.90;;;;;;489987;242;28802;-81
2023/07/14 05:56:13;;;;;;;2.40;2.20;;;16.80;99.90;;;;;;490066;242;28879;-80
2023/07/14 05:58:15;;;;;;;3.00;2.03;;;16.90;99.90;;;;;;490088;242;28892;-81
2023/07/14 06:00:18;;;;;;;3.20;2.00;;;16.90;99.90;;;;;;490052;242;29470;-80
2023/07/14 06:02:19;;;;;;;2.33;2.13;;;17.00;99.90;;;;;;490081;242;28887;-79
2023/07/14 06:04:21;;;;;;;6.70;2.23;;;16.90;99.90;;;;;;490018;242;28831;-82
2023/07/14 06:06:22;;;;;;;2.60;2.30;;;16.90;99.90;;;;;;490061;242;28792;-81
2023/07/14 06:08:23;;;;;;;2.37;2.07;;;17.00;99.90;;;;;;490070;242;28926;-81
2023/07/14 06:10:25;;;;;;;3.97;2.10;;;16.90;99.90;;;;;;490097;242;28796;-81
2023/07/14 06:12:26;;;;;;;2.57;2.20;;;16.90;99.90;;;;;;490095;242;28860;-78
2023/07/14 06:14:27;;;;;;;6.80;2.40;;;16.90;99.90;;;;;;490107;242;29374;-79
2023/07/14 06:16:28;;;;;;;4.83;2.27;;;17.00;99.90;;;;;;490095;242;29236;-81
2023/07/14 06:18:29;;;;;;;2.53;2.13;;;17.00;99.90;;;;;;490026;242;29326;-81
2023/07/14 06:20:31;;;;;;;2.13;1.93;;;17.00;99.90;;;;;;490060;242;29256;-81
2023/07/14 06:22:32;;;;;;;2.37;2.10;;;17.10;99.90;;;;;;489992;240;28839;-80
2023/07/14 06:24:36;;;;;;;2.50;2.30;;;17.20;99.90;;;;;;499478;237;28824;-81
2023/07/14 06:26:34;;;;;;;3.50;2.40;;;17.20;99.90;;;;;;500669;237;28865;-80
2023/07/14 06:28:36;;;;;;;2.77;2.40;;;17.30;99.90;;;;;;500740;237;28820;-80
2023/07/14 06:30:38;;;;;;;6.13;2.23;;;17.50;99.90;;;;;;500694;237;28855;-81
2023/07/14 06:32:39;;;;;;;3.10;2.17;;;17.60;99.90;;;;;;500691;237;28807;-80
2023/07/14 06:34:39;;;;;;;4.90;2.27;;;17.60;99.90;;;;;;500776;237;28790;-81
2023/07/14 06:36:41;;;;;;;3.90;2.13;;;17.70;99.90;;;;;;500748;237;28851;-78
2023/07/14 06:38:42;;;;;;;2.73;2.10;;;17.80;99.90;;;;;;500741;237;28794;-80
2023/07/14 06:40:43;;;;;;;3.53;2.30;;;17.80;99.90;;;;;;500735;237;29345;-83
2023/07/14 06:42:44;;;;;;;2.73;2.07;;;18.00;99.90;;;;;;500745;237;29274;-80
2023/07/14 06:44:46;;;;;;;2.17;1.90;;;18.10;99.90;;;;;;500791;237;29351;-80
2023/07/14 06:46:47;;;;;;;1.90;1.80;;;18.20;99.90;;;;;;500799;237;29324;-83
2023/07/14 06:48:48;;;;;;;3.60;1.90;;;18.30;99.90;;;;;;500238;237;29482;-82
2023/07/14 06:50:50;;;;;;;7.50;2.03;;;18.40;99.90;;;;;;500751;237;28812;-80
2023/07/14 06:52:51;;;;;;;2.63;1.90;;;18.40;99.90;;;;;;500748;237;28883;-80
2023/07/14 06:54:53;;;;;;;2.13;1.90;;;18.40;99.90;;;;;;500788;237;28802;-82
2023/07/14 06:56:53;;;;;;;2.10;1.97;;;18.50;99.90;;;;;;500767;237;28767;-82
2023/07/14 06:58:55;;;;;;;2.20;1.70;;;18.60;99.90;;;;;;500775;237;28918;-81
2023/07/14 07:00:56;;;;;;;1.70;1.60;;;18.70;99.90;;;;;;500759;237;28911;-83
2023/07/14 07:02:57;;;;;;;2.33;1.77;;;18.80;99.90;;;;;;500739;237;28914;-82
2023/07/14 07:04:58;;;;;;;1.70;1.60;;;18.90;99.90;;;;;;500671;237;28813;-82
2023/07/14 07:07:00;;;;;;;3.03;2.00;;;19.00;99.90;;;;;;500778;237;29212;-82
2023/07/14 07:09:01;;;;;;;5.87;1.63;;;19.10;99.90;;;;;;500677;237;29281;-82
2023/07/14 07:11:02;;;;;;;2.07;1.77;;;19.30;99.90;;;;;;500659;237;29220;-83
2023/07/14 07:13:03;;;;;;;3.77;1.70;;;19.40;99.90;;;;;;500733;237;28915;-80
2023/07/14 07:15:05;;;;;;;2.67;1.80;;;19.50;99.90;;;;;;500732;237;28814;-81
2023/07/14 07:17:06;;;;;;;1.53;1.43;;;19.80;99.90;;;;;;500729;237;28815;-81
2023/07/14 07:19:07;;;;;;;2.87;1.90;;;19.90;99.90;;;;;;500723;237;28891;-81
2023/07/14 07:21:12;;;;;;;4.27;2.07;;;20.10;99.90;;;;;;500750;237;28743;-83
2023/07/14 07:23:10;;;;;;;2.20;2.00;;;20.20;99.90;;;;;;500680;237;28803;-82
2023/07/14 07:25:11;;;;;;;3.17;1.70;;;20.30;99.90;;;;;;500762;237;28867;-83
2023/07/14 07:27:12;;;;;;;4.60;1.90;;;20.40;99.90;;;;;;500784;237;29327;-83
2023/07/14 07:29:14;;;;;;;3.13;1.90;;;20.40;99.90;;;;;;500705;237;29354;-83
2023/07/14 07:31:15;;;;;;;5.10;1.80;;;20.50;99.90;;;;;;500844;237;29218;-83
2023/07/14 07:33:16;;;;;;;2.17;1.60;;;20.60;99.90;;;;;;500872;237;29334;-81
2023/07/14 07:35:17;;;;;;;2.83;1.73;;;20.60;99.90;;;;;;500765;237;28840;-81
2023/07/14 07:37:18;;;;;;;2.40;1.80;;;20.70;99.90;;;;;;500806;237;28825;-82
2023/07/14 07:39:20;;;;;;;1.83;1.70;;;20.90;99.90;;;;;;500806;237;28839;-81
2023/07/14 07:41:21;;;;;;;2.33;1.70;;;21.00;99.90;;;;;;500723;237;28816;-81
2023/07/14 07:43:22;;;;;;;3.90;2.30;;;21.00;99.90;;;;;;500765;237;28895;-81
2023/07/14 07:45:23;;;;;;;6.07;2.00;;;21.00;99.90;;;;;;500715;237;28813;-81
2023/07/14 07:47:25;;;;;;;3.13;2.07;;;21.00;99.90;;;;;;500866;237;28751;-81
2023/07/14 07:49:26;;;;;;;2.13;1.77;;;21.00;99.90;;;;;;500764;237;28837;-80
2023/07/14 07:51:27;;;;;;;3.70;1.90;;;21.10;99.90;;;;;;500772;237;28855;-82
2023/07/14 07:53:28;;;;;;;2.23;1.80;;;21.10;99.90;;;;;;500888;237;29245;-82
2023/07/14 07:55:30;;;;;;;2.83;2.20;;;21.20;99.90;;;;;;500844;237;29216;-82
2023/07/14 07:57:31;;;;;;;3.53;1.70;;;21.20;99.90;;;;;;500759;237;29230;-82
2023/07/14 07:59:32;;;;;;;1.57;1.47;;;21.20;99.90;;;;;;500765;237;28814;-81
2023/07/14 08:01:34;;;;;;;3.60;1.80;;;21.20;99.90;;;;;;500750;237;28823;-81
2023/07/14 08:03:35;;;;;;;2.50;1.77;;;21.30;99.90;;;;;;500719;237;28870;-81
2023/07/14 08:05:36;;;;;;;3.93;1.73;;;21.30;99.90;;;;;;500662;237;28779;-80
2023/07/14 08:07:37;;;;;;;3.50;2.00;;;21.50;99.90;;;;;;500791;237;28905;-81
2023/07/14 08:09:38;;;;;;;4.33;2.27;;;21.50;99.90;;;;;;500667;237;28901;-82
2023/07/14 08:11:40;;;;;;;2.00;1.50;;;21.60;99.90;;;;;;500434;237;28809;-80
2023/07/14 08:13:41;;;;;;;3.47;2.10;;;21.60;99.90;;;;;;500673;237;28787;-79
2023/07/14 08:15:42;;;;;;;4.00;2.03;;;21.70;99.90;;;;;;500539;237;28920;-80
2023/07/14 08:17:43;;;;;;;2.13;1.87;;;21.80;99.90;;;;;;500765;237;29314;-81
2023/07/14 08:19:45;;;;;;;4.90;2.20;;;21.90;99.90;;;;;;500681;237;29276;-80
2023/07/14 08:21:46;;;;;;;3.00;1.80;;;22.10;99.90;;;;;;500786;237;29355;-81
2023/07/14 08:23:47;;;;;;;3.17;1.83;;;22.20;99.90;;;;;;500788;237;28888;-81
2023/07/14 08:25:48;;;;;;;3.07;1.70;;;22.30;99.90;;;;;;500777;237;28829;-80
2023/07/14 08:27:50;;;;;;;6.73;1.97;;;22.40;99.90;;;;;;500752;237;28816;-82
2023/07/14 08:29:53;;;;;;;4.63;1.80;;;22.50;99.90;;;;;;500761;237;28822;-81
2023/07/14 08:31:52;;;;;;;4.73;1.50;;;22.60;99.90;;;;;;500728;237;28766;-82
2023/07/14 08:33:53;;;;;;;3.80;2.00;;;22.70;99.90;;;;;;500793;237;28769;-79
2023/07/14 08:35:55;;;;;;;5.07;2.07;;;22.90;99.90;;;;;;500793;237;28813;-79
2023/07/14 08:37:56;;;;;;;2.23;2.03;;;23.10;99.90;;;;;;500753;237;28801;-80
2023/07/14 08:39:57;;;;;;;3.43;2.20;;;23.00;99.80;;;;;;500763;237;28817;-80
2023/07/14 08:41:58;;;;;;;3.73;1.60;;;23.10;99.60;;;;;;500786;237;29564;-78
2023/07/14 08:44:00;;;;;;;2.43;1.80;;;23.20;99.90;;;;;;500795;237;29259;-80
2023/07/14 08:46:03;;;;;;;4.47;1.67;;;23.30;99.90;;;;;;500702;237;29278;-79
2023/07/14 08:48:04;;;;;;;2.50;1.50;;;23.30;99.80;;;;;;500704;237;29213;-80
2023/07/14 08:50:03;;;;;;;4.83;1.97;;;23.40;99.30;;;;;;500531;237;28858;-79
2023/07/14 08:52:05;;;;;;;2.80;2.07;;;23.50;98.80;;;;;;500790;237;28796;-79
2023/07/14 08:54:07;;;;;;;4.50;2.00;;;23.40;99.40;;;;;;500694;237;28853;-79
2023/07/14 08:56:07;;;;;;;3.47;1.80;;;23.50;98.60;;;;;;500721;237;28906;-80
2023/07/14 08:58:09;;;;;;;9.73;2.00;;;23.70;98.40;;;;;;500755;237;28762;-79
2023/07/14 09:00:10;;;;;;;2.40;2.00;;;23.60;97.70;;;;;;500669;237;28839;-80
2023/07/14 09:02:11;;;;;;;2.23;1.73;;;23.70;98.00;;;;;;500685;237;28824;-80
2023/07/14 09:04:12;;;;;;;2.33;1.70;;;23.70;98.30;;;;;;500663;237;29227;-82
2023/07/14 09:06:14;;;;;;;2.73;1.43;;;23.80;98.10;;;;;;500710;237;28844;-80
2023/07/14 09:08:15;;;;;;;4.87;1.97;;;23.90;97.70;;;;;;500734;236;28764;-81
2023/07/14 09:10:16;;;;;;;6.80;2.33;;;24.00;97.00;;;;;;500743;237;28803;-78
2023/07/14 09:12:17;;;;;;;6.83;2.00;;;23.70;96.90;;;;;;500789;237;28894;-79
2023/07/14 09:14:19;;;;;;;1.63;1.53;;;23.80;97.60;;;;;;500794;237;28771;-80
2023/07/14 09:16:20;;;;;;;3.30;1.50;;;23.90;97.20;;;;;;500596;237;29289;-80
2023/07/14 09:18:21;;;;;;;5.83;1.77;;;24.00;97.70;;;;;;500734;237;29229;-80
2023/07/14 09:20:22;;;;;;;4.97;1.93;;;24.00;97.40;;;;;;500765;237;29311;-81
2023/07/14 09:22:24;;;;;;;6.60;2.10;;;24.10;97.30;;;;;;500799;237;28818;-80
2023/07/14 09:24:25;;;;;;;3.30;1.80;;;24.10;96.70;;;;;;500701;237;28757;-80
2023/07/14 09:26:26;;;;;;;2.93;1.77;;;24.00;97.70;;;;;;500739;237;29314;-79
2023/07/14 09:28:27;;;;;;;4.97;1.87;;;24.10;97.50;;;;;;500748;237;28827;-79
2023/07/14 09:30:29;;;;;;;3.13;1.80;;;24.00;97.00;;;;;;500728;237;28781;-80
2023/07/14 09:32:30;;;;;;;3.53;1.87;;;23.90;96.90;;;;;;500725;237;28817;-79
2023/07/14 09:34:31;;;;;;;1.70;1.57;;;23.80;97.60;;;;;;500710;237;28763;-80
2023/07/14 09:36:32;;;;;;;3.87;1.80;;;23.60;97.80;;;;;;500661;237;28823;-80
2023/07/14 09:38:34;;;;;;;1.97;1.80;;;23.60;98.20;;;;;;500742;237;28772;-79
2023/07/14 09:40:36;;;;;;;2.40;1.80;;;23.40;98.00;;;;;;500724;237;29285;-80
2023/07/14 09:42:36;;;;;;;1.70;1.53;;;23.40;98.00;;;;;;500715;237;29354;-82
2023/07/14 09:44:37;;;;;;;3.80;2.20;;;23.30;97.50;;;;;;500792;237;29298;-81
2023/07/14 09:46:39;;;;;;;5.47;1.90;;;23.20;98.40;;;;;;500693;237;29379;-80
2023/07/14 09:48:40;;;;;;;3.73;2.23;;;23.40;98.40;;;;;;500660;237;28777;-80
2023/07/14 09:50:41;;;;;;;4.73;1.90;;;23.50;98.50;;;;;;500789;237;28746;-80
2023/07/14 09:52:42;;;;;;;5.90;1.90;;;23.70;97.30;;;;;;500788;237;28822;-80
2023/07/14 09:54:44;;;;;;;4.23;2.00;;;23.90;97.50;;;;;;500748;237;28756;-79
2023/07/14 09:56:45;;;;;;;3.63;1.80;;;24.10;97.30;;;;;;500725;237;28828;-80
2023/07/14 09:58:46;;;;;;;3.27;1.70;;;24.40;97.10;;;;;;500766;237;29267;-79
2023/07/14 10:00:48;;;;;;;4.90;2.37;;;24.70;97.20;;;;;;500777;237;28767;-79
2023/07/14 10:02:49;;;;;;;2.77;1.97;;;24.90;96.50;;;;;;500757;237;28873;-79
2023/07/14 10:04:50;;;;;;;3.33;1.83;;;25.10;95.80;;;;;;500720;237;29303;-78
2023/07/14 10:06:51;;;;;;;5.40;2.00;;;25.10;95.30;;;;;;500744;237;29265;-79
2023/07/14 10:08:54;;;;;;;2.63;1.90;;;24.90;95.20;;;;;;500790;236;29383;-81
2023/07/14 10:10:55;;;;;;;4.77;2.00;;;25.00;94.00;;;;;;500710;237;29269;-79
2023/07/14 10:12:55;;;;;;;3.27;1.73;;;24.80;95.00;;;;;;500738;237;28935;-79
2023/07/14 10:14:56;;;;;;;4.43;2.00;;;24.80;95.60;;;;;;500706;237;28891;-80
2023/07/14 10:16:57;;;;;;;2.73;1.87;;;24.70;95.50;;;;;;500714;237;28804;-79
2023/07/14 10:19:00;;;;;;;3.70;1.90;;;24.80;95.10;;;;;;500787;237;28833;-78
2023/07/14 10:21:00;;;;;;;4.63;2.40;;;24.90;95.10;;;;;;500726;237;28842;-79
2023/07/14 10:23:01;;;;;;;2.20;1.90;;;25.00;95.20;;;;;;500800;237;28796;-78
2023/07/14 10:25:03;;;;;;;2.10;1.70;;;25.00;95.00;;;;;;500701;237;28887;-79
2023/07/14 10:27:04;;;;;;;1.90;1.60;;;25.20;94.30;;;;;;500746;237;28914;-79
2023/07/14 10:29:05;;;;;;;2.93;2.00;;;25.10;94.80;;;;;;500763;237;28817;-79
2023/07/14 10:31:06;;;;;;;2.50;2.00;;;25.10;93.50;;;;;;500749;237;29284;-79